createdAt,value
2022-08-27T00:00:14.447Z,19.20
2022-08-27T00:03:02.796Z,19.23
2022-08-27T00:05:32.611Z,19.23
2022-08-27T00:08:01.176Z,19.18
2022-08-27T00:10:30.088Z,19.12
2022-08-27T00:12:58.814Z,19.07
2022-08-27T00:15:28.101Z,19.02
2022-08-27T00:17:56.840Z,18.95
2022-08-27T00:20:26.927Z,18.91
2022-08-27T00:22:55.554Z,18.87
2022-08-27T00:25:24.174Z,18.79
2022-08-27T00:27:53.189Z,18.69
2022-08-27T00:30:23.028Z,18.63
2022-08-27T00:32:51.765Z,18.61
2022-08-27T00:35:20.488Z,18.59
2022-08-27T00:37:49.669Z,18.60
2022-08-27T00:40:21.527Z,18.63
2022-08-27T00:42:49.689Z,18.65
2022-08-27T00:45:21.935Z,18.62
2022-08-27T00:47:54.840Z,18.63
2022-08-27T00:50:31.778Z,18.65
2022-08-27T00:53:03.543Z,18.66
2022-08-27T00:55:36.648Z,18.69
2022-08-27T00:58:14.209Z,18.71
2022-08-27T01:00:43.684Z,18.74
2022-08-27T01:03:13.080Z,18.77
2022-08-27T01:05:44.066Z,18.79
2022-08-27T01:08:17.249Z,18.79
2022-08-27T01:10:46.368Z,18.74
2022-08-27T01:13:18.730Z,18.66
2022-08-27T01:15:47.685Z,18.59
2022-08-27T01:18:18.050Z,18.53
2022-08-27T01:20:55.198Z,18.50
2022-08-27T01:23:31.575Z,18.46
2022-08-27T01:26:05.356Z,18.43
2022-08-27T01:28:35.842Z,18.40
2022-08-27T01:31:08.391Z,18.39
2022-08-27T01:33:37.530Z,18.37
2022-08-27T01:36:07.631Z,18.37
2022-08-27T01:38:36.532Z,18.38
2022-08-27T01:41:05.332Z,18.38
2022-08-27T01:43:34.278Z,18.37
2022-08-27T01:46:02.929Z,18.37
2022-08-27T01:48:31.710Z,18.37
2022-08-27T01:51:00.385Z,18.38
2022-08-27T01:53:29.089Z,18.39
2022-08-27T01:55:58.872Z,18.34
2022-08-27T01:58:30.473Z,18.17
2022-08-27T02:01:00.580Z,17.98
2022-08-27T02:03:30.261Z,17.81
2022-08-27T02:06:00.210Z,17.73
2022-08-27T02:08:28.969Z,17.70
2022-08-27T02:10:57.704Z,17.68
2022-08-27T02:13:26.544Z,17.67
2022-08-27T02:15:55.275Z,17.68
2022-08-27T02:18:23.989Z,17.73
2022-08-27T02:20:52.629Z,17.80
2022-08-27T02:23:21.318Z,17.84
2022-08-27T02:25:50.648Z,17.85
2022-08-27T02:28:19.476Z,17.88
2022-08-27T02:30:48.173Z,17.93
2022-08-27T02:33:16.695Z,17.99
2022-08-27T02:35:45.743Z,18.07
2022-08-27T02:38:14.567Z,18.12
2022-08-27T02:40:43.264Z,18.15
2022-08-27T02:43:15.842Z,18.21
2022-08-27T02:45:44.831Z,18.26
2022-08-27T02:48:13.608Z,18.27
2022-08-27T02:50:43.357Z,18.30
2022-08-27T02:53:13.526Z,18.32
2022-08-27T02:55:42.284Z,18.34
2022-08-27T02:58:12.416Z,18.37
2022-08-27T03:00:41.302Z,18.37
2022-08-27T03:03:10.409Z,18.36
2022-08-27T03:05:39.593Z,18.35
2022-08-27T03:08:09.473Z,18.36
2022-08-27T03:10:39.519Z,18.37
2022-08-27T03:13:08.108Z,18.36
2022-08-27T03:15:36.875Z,18.35
2022-08-27T03:18:21.323Z,18.34
2022-08-27T03:20:52.696Z,18.34
2022-08-27T03:23:24.720Z,18.32
2022-08-27T03:25:57.495Z,18.30
2022-08-27T03:28:28.602Z,18.26
2022-08-27T03:31:00.783Z,18.24
2022-08-27T03:33:32.946Z,18.23
2022-08-27T03:36:01.559Z,18.18
2022-08-27T03:38:30.284Z,18.17
2022-08-27T03:40:59.371Z,18.14
2022-08-27T03:43:28.395Z,18.07
2022-08-27T03:46:01.430Z,18.05
2022-08-27T03:48:31.566Z,18.03
2022-08-27T03:51:04.714Z,18.01
2022-08-27T03:53:33.841Z,18.01
2022-08-27T03:56:02.906Z,17.98
2022-08-27T03:58:31.759Z,17.97
2022-08-27T04:01:00.822Z,17.95
2022-08-27T04:03:29.863Z,17.93
2022-08-27T04:05:59.062Z,17.89
2022-08-27T04:08:27.868Z,17.90
2022-08-27T04:10:56.571Z,17.94
2022-08-27T04:13:25.225Z,17.98
2022-08-27T04:15:54.919Z,18.02
2022-08-27T04:18:23.885Z,18.07
2022-08-27T04:20:52.619Z,18.10
2022-08-27T04:23:21.543Z,18.12
2022-08-27T04:25:50.358Z,18.14
2022-08-27T04:28:19.155Z,18.22
2022-08-27T04:30:48.238Z,18.38
2022-08-27T04:33:17.026Z,18.58
2022-08-27T04:35:45.563Z,18.79
2022-08-27T04:38:14.258Z,18.99
2022-08-27T04:41:01.080Z,19.19
2022-08-27T04:43:29.932Z,19.44
2022-08-27T04:45:58.593Z,19.69
2022-08-27T04:48:27.610Z,19.95
2022-08-27T04:50:56.348Z,20.24
2022-08-27T04:53:25.514Z,20.48
2022-08-27T04:55:56.397Z,20.68
2022-08-27T04:58:25.988Z,20.90
2022-08-27T05:00:59.474Z,21.09
2022-08-27T05:03:28.798Z,21.25
2022-08-27T05:06:02.352Z,21.49
2022-08-27T05:08:33.067Z,21.79
2022-08-27T05:11:02.630Z,22.06
2022-08-27T05:13:31.409Z,22.31
2022-08-27T05:16:02.482Z,22.52
2022-08-27T05:18:34.215Z,22.60
2022-08-27T05:21:07.225Z,22.81
2022-08-27T05:23:41.140Z,23.06
2022-08-27T05:26:10.093Z,23.35
2022-08-27T05:28:38.774Z,23.66
2022-08-27T05:31:10.205Z,23.88
2022-08-27T05:34:18.714Z,24.15
2022-08-27T05:37:19.243Z,24.50
2022-08-27T05:39:54.640Z,24.70
2022-08-27T05:42:40.952Z,24.82
2022-08-27T05:45:17.988Z,24.68
2022-08-27T05:47:55.502Z,24.51
2022-08-27T05:51:26.056Z,24.33
2022-08-27T05:54:16.600Z,24.00
2022-08-27T05:57:13.421Z,23.80
2022-08-27T06:00:27.040Z,23.81
2022-08-27T06:03:17.441Z,24.14
2022-08-27T06:05:50.175Z,24.57
2022-08-27T06:08:19.324Z,24.95
2022-08-27T06:10:47.906Z,25.35
2022-08-27T06:13:16.562Z,25.72
2022-08-27T06:15:45.311Z,26.11
2022-08-27T06:18:14.295Z,26.52
2022-08-27T06:20:43.462Z,26.94
2022-08-27T06:23:12.293Z,27.38
2022-08-27T06:25:43.928Z,27.73
2022-08-27T06:28:28.996Z,27.97
2022-08-27T06:31:04.332Z,28.12
2022-08-27T06:33:33.760Z,28.37
2022-08-27T06:36:05.002Z,28.63
2022-08-27T06:38:33.424Z,28.96
2022-08-27T06:41:04.163Z,29.20
2022-08-27T06:43:34.654Z,29.47
2022-08-27T06:46:04.879Z,29.72
2022-08-27T06:48:36.283Z,30.02
2022-08-27T06:51:09.531Z,30.30
2022-08-27T06:53:38.246Z,30.60
2022-08-27T06:56:08.278Z,30.87
2022-08-27T06:58:37.271Z,31.07
2022-08-27T07:01:14.968Z,31.32
2022-08-27T07:03:44.339Z,31.46
2022-08-27T07:06:15.847Z,31.53
2022-08-27T07:08:53.398Z,31.65
2022-08-27T07:11:25.250Z,31.82
2022-08-27T07:13:55.959Z,32.08
2022-08-27T07:16:27.139Z,32.26
2022-08-27T07:19:01.830Z,32.40
2022-08-27T07:21:34.768Z,32.55
2022-08-27T07:24:06.044Z,32.69
2022-08-27T07:26:37.066Z,32.81
2022-08-27T07:29:07.596Z,32.97
2022-08-27T07:31:38.181Z,33.11
2022-08-27T07:34:07.372Z,33.21
2022-08-27T07:36:37.189Z,33.40
2022-08-27T07:39:07.061Z,33.61
2022-08-27T07:41:57.072Z,33.77
2022-08-27T07:44:40.160Z,33.77
2022-08-27T07:47:09.360Z,33.63
2022-08-27T07:49:38.040Z,33.43
2022-08-27T07:52:07.049Z,33.21
2022-08-27T07:54:35.689Z,32.92
2022-08-27T07:57:04.787Z,32.63
2022-08-27T07:59:33.428Z,32.33
2022-08-27T08:02:02.323Z,32.14
2022-08-27T08:04:31.247Z,32.19
2022-08-27T08:06:59.983Z,32.37
2022-08-27T08:09:30.116Z,32.65
2022-08-27T08:11:58.807Z,33.00
2022-08-27T08:14:27.831Z,33.27
2022-08-27T08:17:00.253Z,33.46
2022-08-27T08:19:29.304Z,33.61
2022-08-27T08:22:05.335Z,33.82
2022-08-27T08:24:35.942Z,33.79
2022-08-27T08:27:07.407Z,33.63
2022-08-27T08:29:37.760Z,33.43
2022-08-27T08:32:07.556Z,33.10
2022-08-27T08:34:36.420Z,32.75
2022-08-27T08:37:06.186Z,32.57
2022-08-27T08:39:36.191Z,32.56
2022-08-27T08:42:07.194Z,32.73
2022-08-27T08:44:41.175Z,32.86
2022-08-27T08:47:15.080Z,32.89
2022-08-27T08:49:54.108Z,33.08
2022-08-27T08:52:39.993Z,33.40
2022-08-27T08:55:34.976Z,33.53
2022-08-27T08:58:16.740Z,33.41
2022-08-27T09:00:48.703Z,33.23
2022-08-27T09:03:17.825Z,33.11
2022-08-27T09:05:54.239Z,33.13
2022-08-27T09:08:35.189Z,33.07
2022-08-27T09:11:13.584Z,32.92
2022-08-27T09:13:49.740Z,32.63
2022-08-27T09:16:18.653Z,32.34
2022-08-27T09:18:51.198Z,32.15
2022-08-27T09:21:30.915Z,31.92
2022-08-27T09:24:16.127Z,31.65
2022-08-27T09:26:45.199Z,31.39
2022-08-27T09:29:18.659Z,31.15
2022-08-27T09:31:55.886Z,30.92
2022-08-27T09:34:27.063Z,30.69
2022-08-27T09:37:20.243Z,30.48
2022-08-27T09:39:52.885Z,30.39
2022-08-27T09:42:31.108Z,30.32
2022-08-27T09:44:59.897Z,30.22
2022-08-27T09:47:28.955Z,29.97
2022-08-27T09:50:07.904Z,29.65
2022-08-27T09:52:48.460Z,29.41
2022-08-27T09:55:34.982Z,29.41
2022-08-27T09:58:05.874Z,29.47
2022-08-27T10:00:38.449Z,29.62
2022-08-27T10:03:09.264Z,29.88
2022-08-27T10:05:42.990Z,30.26
2022-08-27T10:08:22.876Z,30.61
2022-08-27T10:10:57.394Z,30.93
2022-08-27T10:13:32.797Z,31.32
2022-08-27T10:16:26.084Z,31.65
2022-08-27T10:19:04.606Z,31.99
2022-08-27T10:21:44.054Z,32.31
2022-08-27T10:24:24.789Z,32.47
2022-08-27T10:27:13.024Z,32.47
2022-08-27T10:29:50.083Z,32.52
2022-08-27T10:32:34.392Z,32.44
2022-08-27T10:35:12.163Z,32.21
2022-08-27T10:37:48.833Z,32.07
2022-08-27T10:40:23.593Z,31.94
2022-08-27T10:43:02.565Z,31.74
2022-08-27T10:45:44.481Z,31.62
2022-08-27T10:48:25.769Z,31.49
2022-08-27T10:50:56.538Z,31.45
2022-08-27T10:53:35.339Z,31.35
2022-08-27T10:56:14.769Z,31.21
2022-08-27T10:59:07.353Z,30.95
2022-08-27T11:01:47.995Z,30.79
2022-08-27T11:04:21.436Z,30.67
2022-08-27T11:06:57.363Z,30.60
2022-08-27T11:09:35.010Z,30.54
2022-08-27T11:12:16.340Z,30.50
2022-08-27T11:14:52.433Z,30.55
2022-08-27T11:17:34.181Z,30.63
2022-08-27T11:20:10.099Z,30.72
2022-08-27T11:22:45.220Z,30.74
2022-08-27T11:25:34.391Z,30.70
2022-08-27T11:28:06.090Z,30.60
2022-08-27T11:30:44.036Z,30.41
2022-08-27T11:33:19.004Z,30.20
2022-08-27T11:36:06.964Z,30.07
2022-08-27T11:38:45.174Z,29.97
2022-08-27T11:41:45.147Z,29.93
2022-08-27T11:44:15.919Z,29.87
2022-08-27T11:46:48.822Z,29.79
2022-08-27T11:49:28.040Z,29.80
2022-08-27T11:52:01.206Z,29.79
2022-08-27T11:54:43.273Z,29.78
2022-08-27T11:57:16.163Z,29.75
2022-08-27T11:59:44.816Z,29.75
2022-08-27T12:02:23.669Z,29.75
2022-08-27T12:04:54.843Z,29.80
2022-08-27T12:07:33.077Z,29.86
2022-08-27T12:10:24.061Z,29.85
2022-08-27T12:13:04.045Z,29.73
2022-08-27T12:15:51.194Z,29.58
2022-08-27T12:18:38.614Z,29.42
2022-08-27T12:21:16.532Z,29.24
2022-08-27T12:23:52.153Z,29.04
2022-08-27T12:26:31.728Z,28.78
2022-08-27T12:29:29.055Z,28.53
2022-08-27T12:32:05.920Z,28.23
2022-08-27T12:34:48.426Z,27.96
2022-08-27T12:37:21.830Z,27.69
2022-08-27T12:39:54.523Z,27.50
2022-08-27T12:42:23.179Z,27.41
2022-08-27T12:44:56.770Z,27.44
2022-08-27T12:47:25.827Z,27.54
2022-08-27T12:49:57.398Z,27.59
2022-08-27T12:52:46.340Z,27.63
2022-08-27T12:55:27.124Z,27.65
2022-08-27T12:58:06.315Z,27.72
2022-08-27T13:00:47.006Z,27.78
2022-08-27T13:03:26.527Z,27.76
2022-08-27T13:05:57.035Z,27.75
2022-08-27T13:08:29.437Z,27.68
2022-08-27T13:11:08.846Z,27.62
2022-08-27T13:13:41.462Z,27.59
2022-08-27T13:16:10.645Z,27.56
2022-08-27T13:18:39.797Z,27.54
2022-08-27T13:21:14.507Z,27.49
2022-08-27T13:23:48.592Z,27.46
2022-08-27T13:26:22.642Z,27.47
2022-08-27T13:28:52.365Z,27.50
2022-08-27T13:31:23.842Z,27.56
2022-08-27T13:33:58.002Z,27.60
2022-08-27T13:36:28.870Z,27.66
2022-08-27T13:39:02.924Z,27.68
2022-08-27T13:41:35.254Z,27.68
2022-08-27T13:44:09.428Z,27.60
2022-08-27T13:46:48.148Z,27.49
2022-08-27T13:49:22.068Z,27.43
2022-08-27T13:52:01.080Z,27.35
2022-08-27T13:54:32.350Z,27.27
2022-08-27T13:57:07.862Z,27.24
2022-08-27T13:59:42.839Z,27.25
2022-08-27T14:02:26.761Z,27.29
2022-08-27T14:05:10.557Z,27.30
2022-08-27T14:07:44.204Z,27.29
2022-08-27T14:10:30.802Z,27.27
2022-08-27T14:13:02.358Z,27.28
2022-08-27T14:15:34.522Z,27.31
2022-08-27T14:18:06.537Z,27.35
2022-08-27T14:20:36.394Z,27.38
2022-08-27T14:23:04.989Z,27.36
2022-08-27T14:25:34.419Z,27.33
2022-08-27T14:28:03.659Z,27.28
2022-08-27T14:30:32.402Z,27.25
2022-08-27T14:33:02.163Z,27.23
2022-08-27T14:35:34.014Z,27.20
2022-08-27T14:38:08.435Z,27.16
2022-08-27T14:40:37.226Z,27.12
2022-08-27T14:43:06.328Z,27.09
2022-08-27T14:45:36.978Z,27.05
2022-08-27T14:48:06.995Z,27.00
2022-08-27T14:50:43.624Z,26.98
2022-08-27T14:53:12.124Z,26.97
2022-08-27T14:55:41.182Z,26.97
2022-08-27T14:58:14.290Z,26.97
2022-08-27T15:00:43.302Z,26.98
2022-08-27T15:03:12.318Z,27.00
2022-08-27T15:05:40.989Z,27.02
2022-08-27T15:08:12.638Z,27.02
2022-08-27T15:10:41.990Z,27.03
2022-08-27T15:13:10.867Z,27.04
2022-08-27T15:15:39.574Z,27.05
2022-08-27T15:18:09.344Z,27.08
2022-08-27T15:20:39.231Z,27.10
2022-08-27T15:23:07.985Z,27.11
2022-08-27T15:25:36.533Z,27.15
2022-08-27T15:28:06.341Z,27.17
2022-08-27T15:30:36.465Z,27.18
2022-08-27T15:33:06.342Z,27.23
2022-08-27T15:35:35.129Z,27.29
2022-08-27T15:38:04.242Z,27.33
2022-08-27T15:40:36.145Z,27.35
2022-08-27T15:43:06.903Z,27.36
2022-08-27T15:45:36.124Z,27.36
2022-08-27T15:48:05.579Z,27.35
2022-08-27T15:50:34.681Z,27.33
2022-08-27T15:53:06.286Z,27.29
2022-08-27T15:55:38.272Z,27.25
2022-08-27T15:58:08.286Z,27.19
2022-08-27T16:00:38.071Z,27.12
2022-08-27T16:03:11.018Z,27.03
2022-08-27T16:05:41.734Z,26.94
2022-08-27T16:08:11.673Z,26.87
2022-08-27T16:10:40.581Z,26.78
2022-08-27T16:13:09.162Z,26.69
2022-08-27T16:15:39.305Z,26.62
2022-08-27T16:18:09.581Z,26.54
2022-08-27T16:20:38.700Z,26.46
2022-08-27T16:23:07.780Z,26.38
2022-08-27T16:25:42.697Z,26.30
2022-08-27T16:28:12.523Z,26.22
2022-08-27T16:30:42.401Z,26.16
2022-08-27T16:33:11.605Z,26.11
2022-08-27T16:35:40.170Z,26.08
2022-08-27T16:38:09.520Z,26.04
2022-08-27T16:40:42.126Z,26.02
2022-08-27T16:43:14.794Z,26.02
2022-08-27T16:45:43.701Z,26.03
2022-08-27T16:48:30.529Z,26.03
2022-08-27T16:50:59.210Z,26.03
2022-08-27T16:53:28.233Z,26.02
2022-08-27T16:55:56.989Z,26.02
2022-08-27T16:58:27.504Z,26.01
2022-08-27T17:00:58.642Z,26.01
2022-08-27T17:03:28.482Z,25.97
2022-08-27T17:05:58.125Z,25.95
2022-08-27T17:08:28.246Z,25.94
2022-08-27T17:10:57.304Z,25.91
2022-08-27T17:13:29.598Z,25.87
2022-08-27T17:16:01.070Z,25.84
2022-08-27T17:18:29.837Z,25.80
2022-08-27T17:21:00.385Z,25.75
2022-08-27T17:23:32.509Z,25.70
2022-08-27T17:26:02.551Z,25.66
2022-08-27T17:28:31.077Z,25.62
2022-08-27T17:31:00.970Z,25.60
2022-08-27T17:33:35.399Z,25.56
2022-08-27T17:36:05.315Z,25.53
2022-08-27T17:38:37.551Z,25.47
2022-08-27T17:41:12.079Z,25.36
2022-08-27T17:43:40.751Z,25.24
2022-08-27T17:46:09.548Z,25.11
2022-08-27T17:48:38.186Z,24.98
2022-08-27T17:51:07.542Z,24.88
2022-08-27T17:53:37.129Z,24.78
2022-08-27T17:56:06.220Z,24.68
2022-08-27T17:58:34.741Z,24.56
2022-08-27T18:01:03.827Z,24.48
2022-08-27T18:03:44.908Z,24.43
2022-08-27T18:06:17.280Z,24.39
2022-08-27T18:08:46.203Z,24.36
2022-08-27T18:11:16.976Z,24.33
2022-08-27T18:13:52.124Z,24.29
2022-08-27T18:16:21.562Z,24.24
2022-08-27T18:18:51.249Z,24.17
2022-08-27T18:21:25.100Z,24.08
2022-08-27T18:23:55.191Z,24.00
2022-08-27T18:26:27.486Z,23.93
2022-08-27T18:28:56.935Z,23.86
2022-08-27T18:31:29.660Z,23.77
2022-08-27T18:34:20.101Z,23.67
2022-08-27T18:37:25.535Z,23.59
2022-08-27T18:40:20.987Z,23.51
2022-08-27T18:43:14.198Z,23.43
2022-08-27T18:46:11.151Z,23.34
2022-08-27T18:49:05.725Z,23.26
2022-08-27T18:52:08.149Z,23.19
2022-08-27T18:54:54.845Z,23.08
2022-08-27T18:57:39.223Z,22.98
2022-08-27T19:00:26.658Z,22.91
2022-08-27T19:03:05.044Z,22.85
2022-08-27T19:06:00.550Z,22.80
2022-08-27T19:08:52.289Z,22.75
2022-08-27T19:11:28.393Z,22.73
2022-08-27T19:14:02.855Z,22.70
2022-08-27T19:16:45.457Z,22.67
2022-08-27T19:19:22.864Z,22.65
2022-08-27T19:22:06.917Z,22.59
2022-08-27T19:24:50.570Z,22.49
2022-08-27T19:27:24.780Z,22.43
2022-08-27T19:29:56.490Z,22.39
2022-08-27T19:32:28.532Z,22.31
2022-08-27T19:35:00.168Z,22.23
2022-08-27T19:37:34.874Z,22.12
2022-08-27T19:40:08.259Z,22.05
2022-08-27T19:42:38.804Z,22.04
2022-08-27T19:45:12.222Z,22.06
2022-08-27T19:47:44.364Z,22.03
2022-08-27T19:50:16.397Z,22.00
2022-08-27T19:52:46.815Z,21.99
2022-08-27T19:55:20.163Z,21.96
2022-08-27T19:57:50.028Z,21.96
2022-08-27T20:00:21.218Z,21.96
2022-08-27T20:02:50.910Z,21.95
2022-08-27T20:05:20.990Z,21.93
2022-08-27T20:07:51.781Z,21.90
2022-08-27T20:10:25.809Z,21.88
2022-08-27T20:13:07.549Z,21.86
2022-08-27T20:15:38.331Z,21.81
2022-08-27T20:18:10.618Z,21.76
2022-08-27T20:20:43.339Z,21.75
2022-08-27T20:23:13.542Z,21.74
2022-08-27T20:25:42.480Z,21.70
2022-08-27T20:28:38.187Z,21.68
2022-08-27T20:31:07.737Z,21.66
2022-08-27T20:33:41.715Z,21.64
2022-08-27T20:36:14.959Z,21.59
2022-08-27T20:38:46.295Z,21.55
2022-08-27T20:41:14.925Z,21.54
2022-08-27T20:43:43.751Z,21.54
2022-08-27T20:46:14.176Z,21.53
2022-08-27T20:48:43.135Z,21.50
2022-08-27T20:51:12.921Z,21.44
2022-08-27T20:53:42.105Z,21.42
2022-08-27T20:56:11.057Z,21.37
2022-08-27T21:02:08.283Z,21.25
2022-08-27T21:04:38.805Z,21.21
2022-08-27T21:07:11.776Z,21.17
2022-08-27T21:09:57.063Z,21.12
2022-08-27T21:12:27.408Z,21.07
2022-08-27T21:14:57.920Z,21.02
2022-08-27T21:17:28.742Z,20.94
2022-08-27T21:19:57.731Z,20.88
2022-08-27T21:22:26.540Z,20.81
2022-08-27T21:24:55.557Z,20.75
2022-08-27T21:27:24.498Z,20.68
2022-08-27T21:29:53.587Z,20.58
2022-08-27T21:32:22.231Z,20.51
2022-08-27T21:34:51.224Z,20.44
2022-08-27T21:37:20.018Z,20.41
2022-08-27T21:39:48.796Z,20.37
2022-08-27T21:42:17.474Z,20.35
2022-08-27T21:44:46.267Z,20.33
2022-08-27T21:47:14.916Z,20.33
2022-08-27T21:49:43.934Z,20.34
2022-08-27T21:52:12.553Z,20.36
2022-08-27T21:54:42.065Z,20.38
2022-08-27T21:57:13.955Z,20.44
2022-08-27T21:59:45.547Z,20.44
2022-08-27T22:02:38.909Z,20.44
2022-08-27T22:05:06.731Z,20.44
2022-08-27T22:07:35.389Z,20.44
2022-08-27T22:10:05.619Z,20.43
2022-08-27T22:12:34.720Z,20.45
2022-08-27T22:15:04.336Z,20.47
2022-08-27T22:17:33.109Z,20.48
2022-08-27T22:20:07.821Z,20.45
2022-08-27T22:22:36.629Z,20.44
2022-08-27T22:25:07.407Z,20.45
2022-08-27T22:27:36.080Z,20.44
2022-08-27T22:30:10.876Z,20.44
2022-08-27T22:32:40.935Z,20.44
2022-08-27T22:35:12.208Z,20.39
2022-08-27T22:37:41.390Z,20.36
2022-08-27T22:40:19.100Z,20.34
2022-08-27T22:42:49.080Z,20.36
2022-08-27T22:45:19.286Z,20.39
2022-08-27T22:47:48.325Z,20.41
2022-08-27T22:50:17.842Z,20.40
2022-08-27T22:52:47.160Z,20.34
2022-08-27T22:55:18.748Z,20.30
2022-08-27T22:57:47.740Z,20.24
2022-08-27T23:00:20.187Z,20.17
2022-08-27T23:02:48.906Z,20.08
2022-08-27T23:05:18.032Z,20.01
2022-08-27T23:07:47.191Z,19.95
2022-08-27T23:10:20.525Z,19.91
2022-08-27T23:12:49.602Z,19.89
2022-08-27T23:15:19.205Z,19.84
2022-08-27T23:17:47.828Z,19.79
2022-08-27T23:20:17.100Z,19.78
2022-08-27T23:22:46.108Z,19.73
2022-08-27T23:25:33.431Z,19.69
2022-08-27T23:28:06.252Z,19.67
2022-08-27T23:30:35.705Z,19.67
2022-08-27T23:33:04.843Z,19.68
2022-08-27T23:35:33.767Z,19.70
2022-08-27T23:38:02.460Z,19.71
2022-08-27T23:40:31.324Z,19.71
2022-08-27T23:43:02.535Z,19.68
2022-08-27T23:45:31.134Z,19.64
2022-08-27T23:47:59.783Z,19.61
2022-08-27T23:50:34.054Z,19.60
2022-08-27T23:53:03.859Z,19.60
2022-08-27T23:55:33.135Z,19.60
2022-08-27T23:58:02.468Z,19.60
